Time;durP1;ratioP1;P1;durP2;ratioP2;P2;SDS_P1;SDS_P2;PMS_P1;PMS_P2;Temp;Humidity;BMP_temperature;BMP_pressure;BME280_temperature;BME280_humidity;BME280_pressure;Samples;Min_cycle;Max_cycle;Signal;HPM_P1;HPM_P2
2022/02/04 00:20:11;;;;;;;36.92;21.73;;;9.40;99.90;;;;;;5086519;28;20036;-76
2022/02/04 00:21:26;;;;;;;32.13;20.23;;;9.50;99.90;;;;;;5082522;28;20162;-76
2022/02/04 00:23:52;;;;;;;33.42;20.33;;;9.40;99.90;;;;;;5088402;28;20016;-76
2022/02/04 00:26:26;;;;;;;34.75;18.88;;;9.50;99.90;;;;;;5084931;28;20077;-76
2022/02/04 00:29:02;;;;;;;30.13;18.73;;;9.40;99.90;;;;;;5081996;28;20024;-76
2022/02/04 00:31:36;;;;;;;31.23;17.60;;;9.30;99.90;;;;;;5089062;28;20028;-77
2022/02/04 00:34:07;;;;;;;30.45;18.33;;;9.30;99.90;;;;;;5089742;28;20027;-76
2022/02/04 00:39:00;;;;;;;29.60;18.65;;;9.30;99.90;;;;;;5089901;28;20488;-76
2022/02/04 00:41:32;;;;;;;30.20;18.52;;;9.30;99.90;;;;;;5090281;28;20502;-76
2022/02/04 00:44:00;;;;;;;29.60;18.60;;;9.30;99.90;;;;;;5082361;28;20063;-76
2022/02/04 00:46:41;;;;;;;26.48;16.77;;;9.30;99.90;;;;;;5084948;28;20112;-76
2022/02/04 00:51:42;;;;;;;29.08;17.73;;;9.30;99.90;;;;;;5086173;28;20377;-77
2022/02/04 01:26:19;;;;;;;24.25;14.88;;;9.30;99.90;;;;;;5083997;28;20081;-76
2022/02/04 01:28:47;;;;;;;23.30;14.68;;;9.30;99.90;;;;;;5092819;28;20059;-76
2022/02/04 01:31:16;;;;;;;21.65;13.88;;;9.30;99.90;;;;;;5092270;28;20069;-76
2022/02/04 01:33:43;;;;;;;25.60;15.07;;;9.30;99.90;;;;;;5090299;28;20062;-78
2022/02/04 01:36:09;;;;;;;22.92;15.20;;;9.30;99.90;;;;;;5089135;28;20024;-75
2022/02/04 01:38:35;;;;;;;23.25;14.70;;;9.30;99.90;;;;;;5091702;28;20392;-75
2022/02/04 01:41:00;;;;;;;22.88;14.55;;;9.40;99.90;;;;;;5089216;28;20039;-76
2022/02/04 01:43:26;;;;;;;25.30;15.07;;;9.40;99.90;;;;;;5088468;28;20074;-76
2022/02/04 01:45:57;;;;;;;24.85;15.20;;;9.30;99.90;;;;;;5091069;28;20035;-75
2022/02/04 01:48:23;;;;;;;24.67;16.10;;;9.30;99.90;;;;;;5104007;28;20013;-76
2022/02/04 01:50:51;;;;;;;21.10;13.15;;;9.30;99.90;;;;;;5093220;28;20384;-76
2022/02/04 01:53:19;;;;;;;22.70;14.25;;;9.20;99.90;;;;;;5093459;28;20028;-76
2022/02/04 01:55:47;;;;;;;22.02;14.38;;;9.30;99.90;;;;;;5088102;28;20052;-76
2022/02/04 01:58:13;;;;;;;23.77;14.57;;;9.30;99.90;;;;;;5091060;28;20519;-76
2022/02/04 02:00:39;;;;;;;25.95;15.93;;;9.20;99.90;;;;;;5084320;28;20056;-76
2022/02/04 02:03:07;;;;;;;24.00;15.10;;;9.20;99.90;;;;;;5092084;28;20035;-76
2022/02/04 02:05:33;;;;;;;24.30;15.27;;;9.20;99.90;;;;;;5092371;28;20050;-76
2022/02/04 02:08:13;;;;;;;23.95;14.73;;;9.20;99.90;;;;;;5090706;28;20107;-76
2022/02/04 02:10:40;;;;;;;27.00;15.93;;;9.20;99.90;;;;;;5090261;28;20030;-76
2022/02/04 02:45:53;;;;;;;20.70;13.80;;;9.20;99.90;;;;;;5091859;28;20484;-76
2022/02/04 02:48:39;;;;;;;21.25;13.00;;;9.30;99.90;;;;;;5085407;28;20131;-76
2022/02/04 02:59:08;;;;;;;19.10;12.63;;;9.40;99.90;;;;;;5091065;28;20032;-76
2022/02/04 03:01:34;;;;;;;18.98;11.88;;;9.30;99.90;;;;;;5085327;28;20028;-76
2022/02/04 03:04:05;;;;;;;19.10;12.25;;;9.30;99.90;;;;;;5090004;28;20490;-76
2022/02/04 03:06:31;;;;;;;19.13;12.15;;;9.30;99.90;;;;;;5086723;28;20028;-76
2022/02/04 03:08:57;;;;;;;18.73;11.65;;;9.30;99.90;;;;;;5090197;28;20028;-76
2022/02/04 03:11:22;;;;;;;20.20;12.95;;;9.30;99.90;;;;;;5088609;28;20031;-76
2022/02/04 03:13:48;;;;;;;19.73;11.70;;;9.20;99.90;;;;;;5089095;28;20472;-76
2022/02/04 03:16:17;;;;;;;16.75;11.57;;;9.20;99.90;;;;;;5082837;28;20485;-77
2022/02/04 03:18:47;;;;;;;17.98;10.73;;;9.30;99.90;;;;;;5087684;28;20541;-76
2022/02/04 03:21:16;;;;;;;16.83;10.35;;;9.30;99.90;;;;;;5093848;28;20058;-76
2022/02/04 03:23:48;;;;;;;15.10;9.45;;;9.30;99.90;;;;;;5087352;28;20537;-77
2022/02/04 03:26:25;;;;;;;15.00;10.33;;;9.30;99.90;;;;;;5086043;28;20024;-76
2022/02/04 03:28:51;;;;;;;13.80;9.45;;;9.30;99.90;;;;;;5086585;28;20109;-76
2022/02/04 03:31:17;;;;;;;14.77;9.70;;;9.40;99.90;;;;;;5084429;28;20059;-76
2022/02/04 03:33:44;;;;;;;14.77;9.63;;;9.30;99.90;;;;;;5087727;28;20420;-76
2022/02/04 03:36:10;;;;;;;13.30;9.23;;;9.30;99.90;;;;;;5086235;28;20108;-76
2022/02/04 03:38:35;;;;;;;12.52;8.57;;;9.30;99.90;;;;;;5087774;28;20056;-77
2022/02/04 03:41:01;;;;;;;14.32;9.88;;;9.30;99.90;;;;;;5085950;28;20028;-76
2022/02/04 03:43:27;;;;;;;14.77;9.80;;;9.40;99.90;;;;;;5081042;28;20052;-76
2022/02/04 03:45:52;;;;;;;13.98;8.80;;;9.40;99.90;;;;;;5090811;28;20031;-76
2022/02/04 03:48:18;;;;;;;15.55;8.85;;;9.40;99.90;;;;;;5085654;28;20078;-76
2022/02/04 03:50:44;;;;;;;10.48;7.07;;;9.30;99.90;;;;;;5082127;28;20518;-76
2022/02/04 03:53:11;;;;;;;13.57;8.48;;;9.40;99.90;;;;;;5088651;28;20384;-76
2022/02/04 03:55:37;;;;;;;12.75;8.07;;;9.40;99.90;;;;;;5087727;28;20055;-75
2022/02/04 03:58:03;;;;;;;14.55;8.88;;;9.30;99.90;;;;;;5087529;28;20055;-76
2022/02/04 04:00:28;;;;;;;13.05;8.00;;;9.30;99.90;;;;;;5087814;28;20119;-76
2022/02/04 04:02:54;;;;;;;13.02;8.15;;;9.40;99.90;;;;;;5085117;28;20072;-76
2022/02/04 04:05:20;;;;;;;12.88;8.07;;;9.30;99.90;;;;;;5091677;28;20081;-76
2022/02/04 04:07:48;;;;;;;11.82;7.70;;;9.30;99.90;;;;;;5090531;28;20024;-77
2022/02/04 04:10:27;;;;;;;11.60;7.80;;;9.30;99.90;;;;;;5084021;28;20020;-77
2022/02/04 04:12:54;;;;;;;12.68;8.20;;;9.30;99.90;;;;;;5086261;28;20539;-77
2022/02/04 04:15:20;;;;;;;14.35;7.38;;;9.40;99.90;;;;;;5083974;28;20044;-76
2022/02/04 04:17:46;;;;;;;11.40;8.00;;;9.30;99.90;;;;;;5086506;28;20027;-76
2022/02/04 04:20:18;;;;;;;10.88;7.63;;;9.30;99.90;;;;;;5089170;28;20028;-76
2022/02/04 04:22:43;;;;;;;12.07;7.80;;;9.30;99.90;;;;;;5090576;28;20480;-76
2022/02/04 04:25:10;;;;;;;11.98;8.20;;;9.30;99.90;;;;;;5085127;28;20028;-76
2022/02/04 04:27:37;;;;;;;9.25;7.15;;;9.30;99.90;;;;;;5087456;28;20037;-76
2022/02/04 04:30:04;;;;;;;12.23;8.13;;;9.30;99.90;;;;;;5086498;28;20024;-76
2022/02/04 04:32:30;;;;;;;10.48;7.50;;;9.20;99.90;;;;;;5088959;28;20396;-77
2022/02/04 04:34:55;;;;;;;9.98;7.18;;;9.30;99.90;;;;;;5089936;28;20024;-76
2022/02/04 04:37:22;;;;;;;9.60;6.70;;;9.30;99.90;;;;;;5090918;28;20507;-76
2022/02/04 04:43:00;;;;;;;11.82;6.45;;;9.30;99.90;;;;;;5082054;28;20048;-76
2022/02/04 04:45:45;;;;;;;12.02;6.65;;;9.30;99.90;;;;;;5094667;28;20036;-77
2022/02/04 05:29:13;;;;;;;9.18;6.32;;;9.30;99.90;;;;;;5090785;28;20035;-77
2022/02/04 05:31:39;;;;;;;10.50;5.53;;;9.30;99.90;;;;;;5091444;28;20028;-76
2022/02/04 05:34:04;;;;;;;7.65;5.50;;;9.30;99.90;;;;;;5094099;28;20031;-76
2022/02/04 05:36:34;;;;;;;9.10;5.95;;;9.30;99.90;;;;;;5093974;28;20024;-77
2022/02/04 05:39:00;;;;;;;8.50;6.07;;;9.40;99.90;;;;;;5091040;28;20031;-76
2022/02/04 05:41:32;;;;;;;8.75;5.57;;;9.30;99.90;;;;;;5093810;28;20054;-76
2022/02/04 05:44:01;;;;;;;;;;;9.30;99.90;;;;;;5087082;28;20032;-73
2022/02/04 05:46:34;;;;;;;7.32;4.88;;;9.30;99.90;;;;;;5095449;28;19908;-76
2022/02/04 05:49:01;;;;;;;7.93;5.40;;;9.30;99.90;;;;;;5091191;28;20028;-76
2022/02/04 06:01:32;;;;;;;7.32;4.18;;;9.20;99.90;;;;;;5089897;28;20468;-77
2022/02/04 06:09:46;;;;;;;7.32;4.80;;;9.30;99.90;;;;;;5092717;28;20032;-76
2022/02/04 06:22:08;;;;;;;6.20;4.63;;;9.30;99.90;;;;;;5082183;28;20032;-76
2022/02/04 06:23:15;;;;;;;7.30;5.22;;;9.40;99.90;;;;;;5092319;28;20132;-75
2022/02/04 06:25:43;;;;;;;5.65;4.15;;;9.30;99.90;;;;;;5092207;28;20067;-75
2022/02/04 06:28:09;;;;;;;6.57;4.18;;;9.30;99.90;;;;;;5083559;28;20388;-76
2022/02/04 06:30:35;;;;;;;4.80;3.83;;;9.30;99.90;;;;;;5090349;28;20024;-76
2022/02/04 06:33:01;;;;;;;5.85;4.97;;;9.30;99.90;;;;;;5086020;28;20035;-76
2022/02/04 06:35:28;;;;;;;5.30;3.97;;;9.30;99.90;;;;;;5092176;28;20024;-76
2022/02/04 06:37:54;;;;;;;5.78;4.65;;;9.30;99.90;;;;;;5090574;28;20419;-76
2022/02/04 06:40:19;;;;;;;7.40;4.95;;;9.20;99.90;;;;;;5089300;28;20024;-75
2022/02/04 06:42:45;;;;;;;6.40;5.07;;;9.20;99.90;;;;;;5088080;28;20041;-76
2022/02/04 06:45:11;;;;;;;7.00;5.47;;;9.10;99.90;;;;;;5088488;28;20025;-76
2022/02/04 06:47:36;;;;;;;6.20;4.93;;;9.20;99.90;;;;;;5090193;28;20078;-76
2022/02/04 06:50:03;;;;;;;9.32;5.47;;;9.20;99.90;;;;;;5086070;28;20032;-76
2022/02/04 06:52:28;;;;;;;9.95;5.68;;;9.20;99.90;;;;;;5084146;28;20024;-76
2022/02/04 06:54:54;;;;;;;9.00;6.55;;;9.10;99.90;;;;;;5087663;28;20024;-75
2022/02/04 06:57:20;;;;;;;9.68;6.88;;;9.10;99.90;;;;;;5089368;28;20028;-76
2022/02/04 06:59:47;;;;;;;11.13;7.53;;;9.10;99.90;;;;;;5083884;28;20075;-77
2022/02/04 07:02:14;;;;;;;13.38;7.20;;;9.10;99.90;;;;;;5090317;28;20028;-77
2022/02/04 07:04:40;;;;;;;8.70;7.18;;;9.10;99.90;;;;;;5087543;28;20024;-77
2022/02/04 07:07:06;;;;;;;10.48;8.13;;;9.10;99.90;;;;;;5089345;28;20024;-77
2022/02/04 07:10:12;;;;;;;12.32;9.23;;;9.00;99.90;;;;;;5083713;28;20460;-77
2022/02/04 07:12:33;;;;;;;11.27;8.57;;;9.10;99.90;;;;;;5088477;28;20483;-76
2022/02/04 07:17:34;;;;;;;13.18;8.95;;;9.10;99.90;;;;;;5091081;28;20032;-76
2022/02/04 07:20:00;;;;;;;15.32;10.45;;;9.10;99.90;;;;;;5085154;28;20024;-76
2022/02/04 07:22:33;;;;;;;16.17;10.73;;;9.20;99.90;;;;;;5089251;28;20046;-76
2022/02/04 07:25:01;;;;;;;15.85;11.32;;;9.10;99.90;;;;;;5085006;28;20528;-76
2022/02/04 07:27:28;;;;;;;17.05;11.60;;;9.10;99.90;;;;;;5091137;28;20043;-76
2022/02/04 07:29:55;;;;;;;17.98;11.27;;;9.20;99.90;;;;;;5084461;28;20016;-76
2022/02/04 07:42:50;;;;;;;16.20;11.13;;;9.10;99.90;;;;;;5089296;28;20145;-76
2022/02/04 07:45:16;;;;;;;15.77;11.50;;;9.20;99.90;;;;;;5089138;28;20052;-76
2022/02/04 07:47:42;;;;;;;14.07;10.27;;;9.20;99.90;;;;;;5085411;28;20682;-76
2022/02/04 07:50:08;;;;;;;18.52;11.82;;;9.20;99.90;;;;;;5087724;28;20038;-75
2022/02/04 07:52:34;;;;;;;15.15;10.70;;;9.10;99.90;;;;;;5085899;28;20103;-76
2022/02/04 07:55:01;;;;;;;15.27;11.30;;;9.20;99.90;;;;;;5086764;28;20390;-76
2022/02/04 07:57:26;;;;;;;16.38;11.82;;;9.20;99.90;;;;;;5087659;28;20039;-76
2022/02/04 07:59:54;;;;;;;14.88;11.32;;;9.20;99.90;;;;;;5085462;28;20380;-76
2022/02/04 08:02:20;;;;;;;16.02;11.43;;;9.20;99.90;;;;;;5087991;28;20036;-76
2022/02/04 08:04:47;;;;;;;16.85;11.18;;;9.20;99.90;;;;;;5082111;28;20020;-77
2022/02/04 08:07:16;;;;;;;15.13;11.25;;;9.30;99.90;;;;;;5085553;28;20046;-76
2022/02/04 08:25:49;;;;;;;13.02;9.20;;;9.20;99.90;;;;;;5069604;28;20032;-77
2022/02/04 08:28:37;;;;;;;14.20;9.68;;;9.30;99.90;;;;;;5065119;28;20084;-77
2022/02/04 08:36:14;;;;;;;9.88;7.63;;;9.30;99.90;;;;;;5089868;28;20036;-76
2022/02/04 08:49:34;;;;;;;12.15;8.07;;;9.30;99.90;;;;;;5091774;28;20032;-77
2022/02/04 08:54:40;;;;;;;9.68;7.45;;;9.20;99.90;;;;;;5085238;28;20040;-76
2022/02/04 08:57:11;;;;;;;11.15;7.78;;;9.30;99.90;;;;;;5085879;28;20677;-76
2022/02/04 09:02:28;;;;;;;8.77;7.38;;;9.30;99.90;;;;;;5088320;28;20071;-76
2022/02/04 09:04:54;;;;;;;11.23;8.23;;;9.30;99.90;;;;;;5087143;28;20484;-77
2022/02/04 09:07:24;;;;;;;10.35;7.95;;;9.30;99.90;;;;;;5080250;28;20103;-76
2022/02/04 09:20:24;;;;;;;10.38;7.43;;;9.50;99.90;;;;;;5088014;28;20033;-77
2022/02/04 09:22:50;;;;;;;11.57;6.57;;;9.40;99.90;;;;;;5082881;28;20443;-76
2022/02/04 09:25:16;;;;;;;9.90;7.43;;;9.50;99.90;;;;;;5088334;28;20059;-77
2022/02/04 09:27:42;;;;;;;9.65;5.72;;;9.60;99.90;;;;;;5088452;28;20597;-77
2022/02/04 09:30:13;;;;;;;8.10;7.05;;;9.60;99.90;;;;;;5086142;28;20472;-78
2022/02/04 09:32:40;;;;;;;10.18;7.30;;;9.50;99.90;;;;;;5082935;28;20395;-77
2022/02/04 09:35:09;;;;;;;7.78;5.97;;;9.60;99.90;;;;;;5089047;28;20399;-77
2022/02/04 09:37:35;;;;;;;7.43;6.18;;;9.60;99.90;;;;;;5087579;28;20097;-75
2022/02/04 09:40:01;;;;;;;7.50;6.70;;;9.70;99.90;;;;;;5084459;28;20032;-77
2022/02/04 09:42:28;;;;;;;8.10;5.63;;;9.70;99.90;;;;;;5091762;28;20032;-78
2022/02/04 09:44:54;;;;;;;7.18;5.53;;;9.70;99.90;;;;;;5093124;28;20441;-76
2022/02/04 09:47:23;;;;;;;7.97;5.97;;;9.60;99.90;;;;;;5086187;28;20052;-78
2022/02/04 09:49:54;;;;;;;6.82;5.13;;;9.60;99.90;;;;;;5090906;28;20020;-78
2022/02/04 10:14:37;;;;;;;5.65;4.85;;;9.80;99.90;;;;;;5091299;28;20093;-77
2022/02/04 10:17:12;;;;;;;5.18;4.60;;;9.90;99.90;;;;;;5090313;28;20016;-76
2022/02/04 10:22:07;;;;;;;4.85;4.32;;;10.00;99.90;;;;;;5090095;28;20036;-76
2022/02/04 10:24:34;;;;;;;6.85;4.57;;;9.90;99.90;;;;;;5089836;28;20170;-76
2022/02/04 10:27:16;;;;;;;6.35;5.32;;;9.80;99.90;;;;;;5092123;28;20016;-76
2022/02/04 10:30:07;;;;;;;6.90;4.75;;;9.90;99.90;;;;;;5084381;28;20024;-78
2022/02/04 10:32:37;;;;;;;7.68;5.65;;;9.90;99.90;;;;;;5084824;28;20040;-76
2022/02/04 10:35:09;;;;;;;7.00;5.60;;;9.90;99.90;;;;;;5088144;28;20032;-76
2022/02/04 10:37:40;;;;;;;6.60;5.80;;;9.90;99.90;;;;;;5091075;28;20020;-76
2022/02/04 10:40:37;;;;;;;5.80;5.25;;;9.90;99.90;;;;;;5085784;28;20032;-76
2022/02/04 10:43:21;;;;;;;7.75;5.88;;;10.00;99.90;;;;;;5087458;28;20084;-79
2022/02/04 10:46:00;;;;;;;6.50;5.35;;;10.00;99.90;;;;;;5082433;28;20028;-80
2022/02/04 10:48:32;;;;;;;6.45;5.53;;;10.00;99.90;;;;;;5085803;28;20021;-77
2022/02/04 11:03:28;;;;;;;5.43;4.55;;;10.30;99.90;;;;;;5087377;28;20055;-79
2022/02/04 11:06:07;;;;;;;8.10;4.68;;;10.30;99.90;;;;;;5087586;28;20020;-79
2022/02/04 11:08:53;;;;;;;4.65;3.88;;;10.30;99.90;;;;;;5083759;28;20118;-79
2022/02/04 11:33:52;;;;;;;4.32;3.92;;;10.40;99.90;;;;;;5092988;28;20032;-77
2022/02/04 11:36:23;;;;;;;5.38;3.85;;;10.30;99.90;;;;;;5081466;28;20032;-78
2022/02/04 11:51:32;;;;;;;6.00;4.10;;;10.40;99.90;;;;;;5081752;28;20028;-76
2022/02/04 11:57:13;;;;;;;5.60;4.75;;;10.60;99.90;;;;;;5083685;28;20032;-76
2022/02/04 11:59:46;;;;;;;5.32;4.78;;;10.60;99.90;;;;;;5089717;28;20495;-77
2022/02/04 12:02:30;;;;;;;6.20;4.72;;;10.60;99.90;;;;;;5088140;28;20032;-76
2022/02/04 12:07:50;;;;;;;6.38;4.55;;;10.50;99.90;;;;;;5084247;28;20036;-77
2022/02/04 12:10:16;;;;;;;5.05;4.35;;;10.40;99.90;;;;;;5085168;28;20273;-77
2022/02/04 12:12:54;;;;;;;6.10;4.70;;;10.40;99.90;;;;;;5088229;28;20492;-77
2022/02/04 12:15:29;;;;;;;7.68;5.90;;;10.60;99.90;;;;;;5084081;28;20024;-76
2022/02/04 12:17:55;;;;;;;6.60;5.97;;;10.50;99.90;;;;;;5089988;28;20028;-76
2022/02/04 12:20:56;;;;;;;7.57;5.97;;;10.50;99.90;;;;;;5086119;28;20028;-76
2022/02/04 12:26:08;;;;;;;8.03;6.20;;;10.70;99.90;;;;;;5089626;28;20075;-76
2022/02/04 12:28:37;;;;;;;8.57;6.05;;;10.70;99.90;;;;;;5089797;28;20024;-76
2022/02/04 12:31:14;;;;;;;7.05;5.60;;;10.60;99.90;;;;;;5079265;28;20021;-76
2022/02/04 12:33:45;;;;;;;7.35;5.95;;;10.60;99.90;;;;;;5085205;28;20048;-76
2022/02/04 12:36:19;;;;;;;6.78;5.18;;;10.50;99.90;;;;;;5081743;28;20031;-76
2022/02/04 12:38:46;;;;;;;7.70;6.60;;;10.50;99.90;;;;;;5088781;28;20111;-78
2022/02/04 12:41:36;;;;;;;9.52;5.82;;;10.50;99.90;;;;;;5090797;28;20038;-79
2022/02/04 12:44:09;;;;;;;8.93;6.65;;;10.50;99.90;;;;;;5088688;28;20361;-78
2022/02/04 12:46:39;;;;;;;9.25;7.22;;;10.50;99.90;;;;;;5086312;28;20024;-78
2022/02/04 12:49:10;;;;;;;8.60;6.00;;;10.50;99.90;;;;;;5081386;28;20499;-79
2022/02/04 12:51:56;;;;;;;9.05;6.63;;;10.40;99.90;;;;;;5089827;28;20039;-79
2022/02/04 12:54:31;;;;;;;7.93;6.28;;;10.50;99.90;;;;;;5090415;28;20020;-79
2022/02/04 13:10:40;;;;;;;9.23;6.45;;;10.60;99.90;;;;;;5092125;28;20476;-77
2022/02/04 13:13:11;;;;;;;9.07;6.05;;;10.60;99.90;;;;;;5093503;28;20070;-77
2022/02/04 13:15:38;;;;;;;8.68;6.30;;;10.70;99.90;;;;;;5089488;28;20028;-78
2022/02/04 13:18:12;;;;;;;8.27;6.57;;;10.70;99.90;;;;;;5094768;28;20106;-78
2022/02/04 13:20:47;;;;;;;8.07;5.47;;;10.70;99.90;;;;;;5092688;28;20028;-79
2022/02/04 13:23:27;;;;;;;9.25;5.88;;;10.70;99.90;;;;;;5080874;28;20481;-79
2022/02/04 13:25:57;;;;;;;9.48;5.60;;;10.70;99.90;;;;;;5086639;28;20319;-78
2022/02/04 13:28:32;;;;;;;11.15;5.25;;;10.70;99.90;;;;;;5093706;28;20048;-78
2022/02/04 13:31:03;;;;;;;9.20;5.60;;;10.70;99.90;;;;;;5085003;28;20024;-77
2022/02/04 13:33:38;;;;;;;7.40;5.65;;;10.70;99.90;;;;;;5093126;28;20032;-78
2022/02/04 13:36:29;;;;;;;7.38;5.28;;;10.70;99.90;;;;;;5092983;28;20031;-78
2022/02/04 13:39:13;;;;;;;7.82;5.40;;;10.80;99.90;;;;;;5090439;28;20036;-78
2022/02/04 13:50:10;;;;;;;8.80;5.72;;;10.70;99.90;;;;;;5091806;28;20032;-79
2022/02/04 13:57:52;;;;;;;;;;;10.50;99.90;;;;;;5088089;28;20071;-74
2022/02/04 14:03:12;;;;;;;7.45;4.82;;;10.40;99.90;;;;;;5083114;28;20043;-78
2022/02/04 14:05:47;;;;;;;11.10;5.05;;;10.40;99.90;;;;;;5089370;28;20051;-77
2022/02/04 14:08:17;;;;;;;8.07;5.03;;;10.40;99.90;;;;;;5091473;28;20027;-76
2022/02/04 14:10:55;;;;;;;8.60;5.07;;;10.50;99.90;;;;;;5093130;28;20107;-77
2022/02/04 14:13:26;;;;;;;9.25;5.35;;;10.30;99.90;;;;;;5090347;28;20032;-78
2022/02/04 14:16:00;;;;;;;8.82;5.25;;;10.30;99.90;;;;;;5089404;28;20107;-77
2022/02/04 14:18:28;;;;;;;9.65;5.43;;;10.30;99.90;;;;;;5086673;28;20531;-76
2022/02/04 14:20:54;;;;;;;11.02;6.20;;;10.30;99.90;;;;;;5088967;28;20051;-77
2022/02/04 14:23:21;;;;;;;9.82;5.22;;;10.30;99.90;;;;;;5084631;28;20178;-78
2022/02/04 14:26:23;;;;;;;8.05;4.72;;;10.10;99.90;;;;;;5090954;28;20024;-79
2022/02/04 14:52:41;;;;;;;7.82;5.80;;;9.90;99.90;;;;;;5087724;28;20067;-76
2022/02/04 15:00:42;;;;;;;8.10;5.00;;;9.90;99.90;;;;;;5085055;28;20175;-77
2022/02/04 15:05:40;;;;;;;11.20;4.88;;;9.80;99.90;;;;;;5090215;28;20024;-77
2022/02/04 15:08:10;;;;;;;9.70;5.13;;;9.80;99.90;;;;;;5081330;28;20020;-77
2022/02/04 15:10:38;;;;;;;8.13;4.40;;;9.70;99.90;;;;;;5090636;28;20495;-76
2022/02/04 15:13:10;;;;;;;8.88;4.93;;;9.70;99.90;;;;;;5085896;28;20028;-76
2022/02/04 15:15:36;;;;;;;5.85;3.90;;;9.60;99.90;;;;;;5087594;28;20033;-76
2022/02/04 15:18:02;;;;;;;5.88;4.13;;;9.60;99.90;;;;;;5083833;28;20039;-76
2022/02/04 15:20:27;;;;;;;4.68;4.13;;;9.50;99.90;;;;;;5090435;28;20077;-76
2022/02/04 15:22:53;;;;;;;7.15;3.90;;;9.50;99.90;;;;;;5085544;28;20063;-75
2022/02/04 15:25:22;;;;;;;1.98;0.70;;;9.50;99.90;;;;;;5088964;28;20032;-76
2022/02/04 15:28:38;;;;;;;2.65;0.60;;;9.20;99.90;;;;;;5086082;28;20026;-76
2022/02/04 15:30:38;;;;;;;1.60;0.52;;;8.90;99.90;;;;;;5079533;28;20042;-74
2022/02/04 15:33:04;;;;;;;2.25;0.40;;;8.80;99.90;;;;;;5089416;28;20533;-76
2022/02/04 15:35:31;;;;;;;1.20;0.80;;;8.80;99.90;;;;;;5092371;28;20032;-77
2022/02/04 15:37:57;;;;;;;4.22;1.33;;;8.60;99.90;;;;;;5091811;28;20024;-76
2022/02/04 15:40:23;;;;;;;1.38;1.27;;;8.60;99.90;;;;;;5088870;28;20106;-76
2022/02/04 15:42:57;;;;;;;2.05;1.00;;;8.50;99.90;;;;;;5087532;28;20056;-78
2022/02/04 15:48:19;;;;;;;0.68;0.50;;;8.20;99.90;;;;;;5088285;28;20036;-76
2022/02/04 15:56:09;;;;;;;1.52;1.00;;;8.20;99.90;;;;;;5088428;28;20043;-77
2022/02/04 16:06:06;;;;;;;2.13;1.60;;;8.20;99.90;;;;;;5083881;28;20032;-73
2022/02/04 16:08:32;;;;;;;3.42;1.50;;;8.10;99.90;;;;;;5089812;28;20024;-74
2022/02/04 16:11:18;;;;;;;4.97;2.47;;;8.00;99.90;;;;;;5082502;28;20031;-75
2022/02/04 16:13:52;;;;;;;2.05;1.52;;;8.10;99.90;;;;;;5084494;28;20089;-75
2022/02/04 16:22:02;;;;;;;1.40;1.30;;;7.90;99.90;;;;;;5079220;28;20446;-75
2022/02/04 16:29:58;;;;;;;3.10;2.28;;;7.70;99.90;;;;;;5091447;28;20552;-75
2022/02/04 16:32:24;;;;;;;1.50;1.40;;;7.70;99.90;;;;;;5089408;28;20024;-76
2022/02/04 16:34:56;;;;;;;2.22;1.23;;;7.70;99.90;;;;;;5087039;28;20028;-76
2022/02/04 16:37:36;;;;;;;1.60;1.07;;;7.70;99.90;;;;;;5084024;28;20035;-76
2022/02/04 16:40:15;;;;;;;1.67;1.15;;;7.60;99.90;;;;;;5083944;28;20650;-77
2022/02/04 16:42:42;;;;;;;2.85;1.63;;;7.50;99.90;;;;;;5085720;28;20400;-79
2022/02/04 16:45:09;;;;;;;2.85;1.83;;;7.50;99.90;;;;;;5084179;28;20159;-79
2022/02/04 16:47:35;;;;;;;2.13;1.35;;;7.50;99.90;;;;;;5087114;28;20060;-77
2022/02/04 16:50:01;;;;;;;3.28;1.30;;;7.50;99.90;;;;;;5083853;28;20063;-78
2022/02/04 16:52:31;;;;;;;4.85;2.00;;;7.50;99.90;;;;;;5088056;28;20039;-76
2022/02/04 16:54:58;;;;;;;3.50;1.40;;;7.50;99.90;;;;;;5091678;28;20016;-77
2022/02/04 16:57:25;;;;;;;2.10;1.42;;;7.40;99.90;;;;;;5086502;28;20472;-77
2022/02/04 16:59:57;;;;;;;2.75;2.20;;;7.40;99.90;;;;;;5090137;28;20494;-76
2022/02/04 17:02:23;;;;;;;6.53;2.50;;;7.30;99.90;;;;;;5087983;28;20067;-77
2022/02/04 17:04:49;;;;;;;5.20;1.65;;;7.40;99.90;;;;;;5087371;28;20047;-77
2022/02/04 17:07:24;;;;;;;2.70;1.35;;;7.40;99.90;;;;;;5090760;28;20043;-77
2022/02/04 17:09:52;;;;;;;6.40;1.05;;;7.20;99.90;;;;;;5087795;28;20073;-77
2022/02/04 17:12:27;;;;;;;5.32;0.88;;;7.10;99.90;;;;;;5090851;28;20028;-76
2022/02/04 17:14:54;;;;;;;3.15;1.10;;;7.10;99.90;;;;;;5087581;28;20114;-76
2022/02/04 17:17:24;;;;;;;2.97;0.90;;;7.10;99.90;;;;;;5081928;28;20025;-77
2022/02/04 17:20:07;;;;;;;3.40;0.80;;;6.90;99.90;;;;;;5088517;28;20032;-76
2022/02/04 17:22:35;;;;;;;2.95;0.80;;;7.10;99.90;;;;;;5077353;28;20037;-76
2022/02/04 17:25:03;;;;;;;3.97;0.80;;;7.00;99.90;;;;;;5084885;28;20024;-76
2022/02/04 17:27:30;;;;;;;3.60;0.80;;;7.00;99.90;;;;;;5090686;28;20407;-76
2022/02/04 17:29:56;;;;;;;8.38;1.35;;;7.10;99.90;;;;;;5087511;28;20418;-76
2022/02/04 17:32:21;;;;;;;3.35;0.98;;;7.20;99.90;;;;;;5079710;28;20036;-76
2022/02/04 17:34:47;;;;;;;2.40;1.00;;;7.10;99.90;;;;;;5084180;28;20032;-77
2022/02/04 17:37:13;;;;;;;4.00;1.10;;;7.10;99.90;;;;;;5082424;28;20036;-76
2022/02/04 17:39:40;;;;;;;5.75;1.40;;;7.10;99.90;;;;;;5083003;28;20056;-77
2022/02/04 17:42:05;;;;;;;5.03;2.00;;;7.10;99.90;;;;;;5088031;28;20468;-75
2022/02/04 17:44:31;;;;;;;5.72;1.90;;;7.00;99.90;;;;;;5088478;28;20081;-75
2022/02/04 17:46:57;;;;;;;7.05;1.80;;;7.00;99.90;;;;;;5088848;28;20035;-75
2022/02/04 17:52:01;;;;;;;7.93;2.00;;;6.90;99.90;;;;;;5090249;28;20028;-76
2022/02/04 17:54:47;;;;;;;6.38;1.45;;;7.00;99.90;;;;;;5084241;28;20420;-76
2022/02/04 17:57:20;;;;;;;8.75;1.98;;;6.90;99.90;;;;;;5089156;28;20027;-77
2022/02/04 18:02:39;;;;;;;6.82;1.40;;;6.80;99.90;;;;;;5085595;28;20455;-75
2022/02/04 18:08:03;;;;;;;8.38;2.05;;;6.80;99.90;;;;;;5075554;28;20040;-75
2022/02/04 18:10:29;;;;;;;12.50;2.80;;;6.80;99.90;;;;;;5090372;28;20036;-76
2022/02/04 18:12:54;;;;;;;10.65;3.50;;;6.80;99.90;;;;;;5083801;28;20055;-76
2022/02/04 18:15:20;;;;;;;12.20;4.43;;;6.80;99.90;;;;;;5092821;28;20483;-76
2022/02/04 18:17:46;;;;;;;12.90;3.88;;;6.90;99.90;;;;;;5085149;28;20047;-75
2022/02/04 18:20:12;;;;;;;15.35;4.45;;;6.80;99.90;;;;;;5090509;28;20669;-75
2022/02/04 18:22:37;;;;;;;14.43;5.20;;;6.90;99.90;;;;;;5090845;28;20063;-75
2022/02/04 18:25:04;;;;;;;17.58;4.72;;;6.80;99.90;;;;;;5090942;28;20050;-76
2022/02/04 18:27:30;;;;;;;15.43;3.80;;;6.80;99.90;;;;;;5089427;28;20084;-76
2022/02/04 18:29:58;;;;;;;17.35;3.88;;;6.60;99.90;;;;;;5090177;28;20464;-75
2022/02/04 18:32:25;;;;;;;14.20;4.28;;;6.50;99.90;;;;;;5090480;28;20024;-75
2022/02/04 18:34:52;;;;;;;14.13;4.13;;;6.50;99.90;;;;;;5086031;28;20089;-75
2022/02/04 18:37:20;;;;;;;13.45;4.90;;;6.40;99.90;;;;;;5088049;28;20050;-75
2022/02/04 18:45:18;;;;;;;12.40;3.70;;;6.50;99.90;;;;;;5089128;28;20702;-76
2022/02/04 18:50:37;;;;;;;15.70;4.82;;;6.40;99.90;;;;;;5091283;28;20118;-76
2022/02/04 18:58:12;;;;;;;10.13;4.50;;;6.40;99.90;;;;;;5087040;28;20457;-76
2022/02/04 19:00:38;;;;;;;13.13;5.00;;;6.50;99.90;;;;;;5093583;28;20027;-76
2022/02/04 19:03:09;;;;;;;11.07;4.63;;;6.50;99.90;;;;;;5089649;28;20036;-76
2022/02/04 19:05:41;;;;;;;13.23;4.63;;;6.50;99.90;;;;;;5085944;28;20017;-76
2022/02/04 19:08:15;;;;;;;16.95;4.90;;;6.50;99.90;;;;;;5086780;28;20035;-76
2022/02/04 19:10:41;;;;;;;14.30;4.35;;;6.50;99.90;;;;;;5093748;28;20372;-76
2022/02/04 19:13:16;;;;;;;12.65;4.07;;;6.40;99.90;;;;;;5088418;28;20032;-76
2022/02/04 19:16:04;;;;;;;10.23;3.88;;;6.30;99.90;;;;;;5084585;28;20047;-76
2022/02/04 19:18:38;;;;;;;16.63;4.68;;;6.40;99.90;;;;;;5087517;28;20032;-76
2022/02/04 19:21:10;;;;;;;16.25;4.97;;;6.30;99.90;;;;;;5085063;28;20024;-76
2022/02/04 19:23:46;;;;;;;15.23;5.10;;;6.30;99.90;;;;;;5086715;28;20059;-75
2022/02/04 19:26:16;;;;;;;21.65;5.63;;;6.30;99.90;;;;;;5086163;28;20036;-76
2022/02/04 19:28:42;;;;;;;15.15;5.10;;;6.30;99.90;;;;;;5089541;28;20035;-76
2022/02/04 19:31:07;;;;;;;21.83;5.20;;;6.20;99.90;;;;;;5088403;28;20024;-76
2022/02/04 19:33:33;;;;;;;16.80;5.18;;;6.20;99.90;;;;;;5085770;28;20036;-75
2022/02/04 19:35:59;;;;;;;18.88;5.78;;;6.20;99.90;;;;;;5088431;28;20032;-76
2022/02/04 19:38:26;;;;;;;14.63;6.20;;;6.30;99.90;;;;;;5090623;28;20024;-76
2022/02/04 19:40:51;;;;;;;11.63;5.85;;;6.20;99.90;;;;;;5082092;28;20031;-76
2022/02/04 19:43:20;;;;;;;14.43;5.40;;;6.30;99.90;;;;;;5087896;28;20052;-76
2022/02/04 19:46:06;;;;;;;11.23;5.90;;;6.30;99.90;;;;;;5085702;28;20025;-76
2022/02/04 19:48:35;;;;;;;13.27;6.05;;;6.20;99.90;;;;;;5087282;28;20028;-76
2022/02/04 20:25:52;;;;;;;13.52;5.13;;;6.30;99.90;;;;;;5082815;28;20085;-76
2022/02/04 20:28:20;;;;;;;15.93;5.82;;;6.20;99.90;;;;;;5086967;28;20423;-76
2022/02/04 20:30:47;;;;;;;22.98;6.57;;;6.10;99.90;;;;;;5089246;28;20076;-76
2022/02/04 20:33:14;;;;;;;20.25;5.82;;;6.10;99.90;;;;;;5081860;28;20036;-76